sensor_id;sensor_type;location;lat;lon;timestamp;temperature;humidity
24041;DHT22;12246;47.612;18.906;2022-09-09T00:04:48;18.00;99.90
24041;DHT22;12246;47.612;18.906;2022-09-09T00:07:52;17.90;99.90
24041;DHT22;12246;47.612;18.906;2022-09-09T00:10:51;18.00;99.90
24041;DHT22;12246;47.612;18.906;2022-09-09T00:13:48;18.00;99.90
24041;DHT22;12246;47.612;18.906;2022-09-09T00:16:49;17.80;99.90
24041;DHT22;12246;47.612;18.906;2022-09-09T00:22:57;17.80;99.90
24041;DHT22;12246;47.612;18.906;2022-09-09T00:26:04;17.70;99.90
24041;DHT22;12246;47.612;18.906;2022-09-09T00:32:16;17.50;99.90
24041;DHT22;12246;47.612;18.906;2022-09-09T00:35:23;17.40;99.90
24041;DHT22;12246;47.612;18.906;2022-09-09T00:38:22;17.40;99.90
24041;DHT22;12246;47.612;18.906;2022-09-09T00:41:22;17.40;99.90
24041;DHT22;12246;47.612;18.906;2022-09-09T00:44:33;17.40;99.90
24041;DHT22;12246;47.612;18.906;2022-09-09T00:50:52;17.40;99.90
24041;DHT22;12246;47.612;18.906;2022-09-09T01:00:24;17.20;99.90
24041;DHT22;12246;47.612;18.906;2022-09-09T01:06:36;17.20;99.90
24041;DHT22;12246;47.612;18.906;2022-09-09T01:12:40;17.10;99.90
24041;DHT22;12246;47.612;18.906;2022-09-09T01:15:34;17.10;99.90
24041;DHT22;12246;47.612;18.906;2022-09-09T01:18:31;17.10;99.90
24041;DHT22;12246;47.612;18.906;2022-09-09T01:21:45;17.10;99.90
24041;DHT22;12246;47.612;18.906;2022-09-09T01:28:08;17.10;99.90
24041;DHT22;12246;47.612;18.906;2022-09-09T01:31:04;17.00;99.90
24041;DHT22;12246;47.612;18.906;2022-09-09T01:33:58;16.90;99.90
24041;DHT22;12246;47.612;18.906;2022-09-09T01:37:08;17.00;99.90
24041;DHT22;12246;47.612;18.906;2022-09-09T01:40:02;16.90;99.90
24041;DHT22;12246;47.612;18.906;2022-09-09T01:42:55;16.90;99.90
24041;DHT22;12246;47.612;18.906;2022-09-09T01:45:49;16.90;99.90
24041;DHT22;12246;47.612;18.906;2022-09-09T01:48:43;16.90;99.90
24041;DHT22;12246;47.612;18.906;2022-09-09T01:51:37;16.90;99.90
24041;DHT22;12246;47.612;18.906;2022-09-09T01:54:31;16.80;99.90
24041;DHT22;12246;47.612;18.906;2022-09-09T01:57:38;16.80;99.90
24041;DHT22;12246;47.612;18.906;2022-09-09T02:00:36;16.80;99.90
24041;DHT22;12246;47.612;18.906;2022-09-09T02:03:35;16.80;99.90
24041;DHT22;12246;47.612;18.906;2022-09-09T02:06:35;16.70;99.90
24041;DHT22;12246;47.612;18.906;2022-09-09T02:09:30;16.70;99.90
24041;DHT22;12246;47.612;18.906;2022-09-09T02:12:24;16.70;99.90
24041;DHT22;12246;47.612;18.906;2022-09-09T02:18:24;16.60;99.90
24041;DHT22;12246;47.612;18.906;2022-09-09T02:21:18;16.60;99.90
24041;DHT22;12246;47.612;18.906;2022-09-09T02:24:13;16.60;99.90
24041;DHT22;12246;47.612;18.906;2022-09-09T02:27:08;16.60;99.90
24041;DHT22;12246;47.612;18.906;2022-09-09T02:30:02;16.60;99.90
24041;DHT22;12246;47.612;18.906;2022-09-09T02:32:56;16.50;99.90
24041;DHT22;12246;47.612;18.906;2022-09-09T02:35:51;16.40;99.90
24041;DHT22;12246;47.612;18.906;2022-09-09T02:38:46;16.40;99.90
24041;DHT22;12246;47.612;18.906;2022-09-09T02:41:44;16.40;99.90
24041;DHT22;12246;47.612;18.906;2022-09-09T02:44:37;16.30;99.90
24041;DHT22;12246;47.612;18.906;2022-09-09T02:50:51;16.40;99.90
24041;DHT22;12246;47.612;18.906;2022-09-09T02:57:23;16.20;99.90
24041;DHT22;12246;47.612;18.906;2022-09-09T03:00:26;16.20;99.90
24041;DHT22;12246;47.612;18.906;2022-09-09T03:03:19;16.20;99.90
24041;DHT22;12246;47.612;18.906;2022-09-09T03:06:12;16.10;99.90
24041;DHT22;12246;47.612;18.906;2022-09-09T03:09:05;16.10;99.90
24041;DHT22;12246;47.612;18.906;2022-09-09T03:11:57;16.10;99.90
24041;DHT22;12246;47.612;18.906;2022-09-09T03:14:49;16.10;99.90
24041;DHT22;12246;47.612;18.906;2022-09-09T03:17:41;16.10;99.90
24041;DHT22;12246;47.612;18.906;2022-09-09T03:20:34;16.10;99.90
24041;DHT22;12246;47.612;18.906;2022-09-09T03:23:26;16.10;99.90
24041;DHT22;12246;47.612;18.906;2022-09-09T03:26:18;16.10;99.90
24041;DHT22;12246;47.612;18.906;2022-09-09T03:29:12;16.00;99.90
24041;DHT22;12246;47.612;18.906;2022-09-09T03:32:04;16.00;99.90
24041;DHT22;12246;47.612;18.906;2022-09-09T03:34:57;16.00;99.90
24041;DHT22;12246;47.612;18.906;2022-09-09T03:37:49;16.00;99.90
24041;DHT22;12246;47.612;18.906;2022-09-09T03:40:52;16.00;99.90
24041;DHT22;12246;47.612;18.906;2022-09-09T03:43:52;16.00;99.90
24041;DHT22;12246;47.612;18.906;2022-09-09T03:46:45;15.90;99.90
24041;DHT22;12246;47.612;18.906;2022-09-09T03:49:37;16.00;99.90
24041;DHT22;12246;47.612;18.906;2022-09-09T03:52:29;15.90;99.90
24041;DHT22;12246;47.612;18.906;2022-09-09T03:55:22;15.90;99.90
24041;DHT22;12246;47.612;18.906;2022-09-09T03:58:15;15.90;99.90
24041;DHT22;12246;47.612;18.906;2022-09-09T04:01:11;15.90;99.90
24041;DHT22;12246;47.612;18.906;2022-09-09T04:04:09;15.90;99.90
24041;DHT22;12246;47.612;18.906;2022-09-09T04:07:04;15.90;99.90
24041;DHT22;12246;47.612;18.906;2022-09-09T04:09:58;15.90;99.90
24041;DHT22;12246;47.612;18.906;2022-09-09T04:12:50;16.00;99.90
24041;DHT22;12246;47.612;18.906;2022-09-09T04:15:44;15.90;99.90
24041;DHT22;12246;47.612;18.906;2022-09-09T04:18:36;15.90;99.90
24041;DHT22;12246;47.612;18.906;2022-09-09T04:21:29;15.90;99.90
24041;DHT22;12246;47.612;18.906;2022-09-09T04:24:22;15.90;99.90
24041;DHT22;12246;47.612;18.906;2022-09-09T04:27:14;15.80;99.90
24041;DHT22;12246;47.612;18.906;2022-09-09T04:30:06;15.80;99.90
24041;DHT22;12246;47.612;18.906;2022-09-09T04:32:59;15.80;99.90
24041;DHT22;12246;47.612;18.906;2022-09-09T04:35:51;15.80;99.90
24041;DHT22;12246;47.612;18.906;2022-09-09T04:38:47;15.80;99.90
24041;DHT22;12246;47.612;18.906;2022-09-09T04:41:40;15.90;99.90
24041;DHT22;12246;47.612;18.906;2022-09-09T04:44:32;15.90;99.90
24041;DHT22;12246;47.612;18.906;2022-09-09T04:47:25;15.90;99.90
24041;DHT22;12246;47.612;18.906;2022-09-09T04:50:17;15.90;99.90
24041;DHT22;12246;47.612;18.906;2022-09-09T04:53:09;15.90;99.90
24041;DHT22;12246;47.612;18.906;2022-09-09T04:56:07;15.90;99.90
24041;DHT22;12246;47.612;18.906;2022-09-09T04:58:59;16.00;99.90
24041;DHT22;12246;47.612;18.906;2022-09-09T05:01:52;16.10;99.90
24041;DHT22;12246;47.612;18.906;2022-09-09T05:04:46;16.20;99.90
24041;DHT22;12246;47.612;18.906;2022-09-09T05:07:38;16.20;99.90
24041;DHT22;12246;47.612;18.906;2022-09-09T05:10:31;16.20;99.90
24041;DHT22;12246;47.612;18.906;2022-09-09T05:13:23;16.20;99.90
24041;DHT22;12246;47.612;18.906;2022-09-09T05:16:16;16.30;99.90
24041;DHT22;12246;47.612;18.906;2022-09-09T05:19:09;16.40;99.90
24041;DHT22;12246;47.612;18.906;2022-09-09T05:22:01;16.40;99.90
24041;DHT22;12246;47.612;18.906;2022-09-09T05:24:53;16.40;99.90
24041;DHT22;12246;47.612;18.906;2022-09-09T05:27:45;16.40;99.90
24041;DHT22;12246;47.612;18.906;2022-09-09T05:30:38;16.50;99.90
24041;DHT22;12246;47.612;18.906;2022-09-09T05:33:31;16.50;99.90
24041;DHT22;12246;47.612;18.906;2022-09-09T05:36:23;16.60;99.90
24041;DHT22;12246;47.612;18.906;2022-09-09T05:39:15;16.70;99.90
24041;DHT22;12246;47.612;18.906;2022-09-09T05:42:08;16.90;99.90
24041;DHT22;12246;47.612;18.906;2022-09-09T05:45:00;16.90;99.90
24041;DHT22;12246;47.612;18.906;2022-09-09T05:47:52;16.90;99.90
24041;DHT22;12246;47.612;18.906;2022-09-09T05:50:52;17.10;99.90
24041;DHT22;12246;47.612;18.906;2022-09-09T05:53:46;17.30;99.90
24041;DHT22;12246;47.612;18.906;2022-09-09T05:56:38;17.80;99.90
24041;DHT22;12246;47.612;18.906;2022-09-09T05:59:31;18.00;99.90
24041;DHT22;12246;47.612;18.906;2022-09-09T06:02:24;18.20;99.90
24041;DHT22;12246;47.612;18.906;2022-09-09T06:05:16;18.60;99.90
24041;DHT22;12246;47.612;18.906;2022-09-09T06:08:08;19.00;99.90
24041;DHT22;12246;47.612;18.906;2022-09-09T06:11:02;19.40;99.90
24041;DHT22;12246;47.612;18.906;2022-09-09T06:13:54;19.60;99.90
24041;DHT22;12246;47.612;18.906;2022-09-09T06:16:47;19.60;99.90
24041;DHT22;12246;47.612;18.906;2022-09-09T06:19:39;19.70;99.90
24041;DHT22;12246;47.612;18.906;2022-09-09T06:22:31;19.50;99.90
24041;DHT22;12246;47.612;18.906;2022-09-09T06:25:23;19.60;99.90
24041;DHT22;12246;47.612;18.906;2022-09-09T06:28:17;19.50;99.90
24041;DHT22;12246;47.612;18.906;2022-09-09T06:31:12;19.50;99.90
24041;DHT22;12246;47.612;18.906;2022-09-09T06:34:07;19.60;99.90
24041;DHT22;12246;47.612;18.906;2022-09-09T06:36:59;19.70;99.90
24041;DHT22;12246;47.612;18.906;2022-09-09T06:39:51;19.80;99.90
24041;DHT22;12246;47.612;18.906;2022-09-09T06:42:44;20.10;99.90
24041;DHT22;12246;47.612;18.906;2022-09-09T06:45:36;20.40;99.90
24041;DHT22;12246;47.612;18.906;2022-09-09T06:48:29;20.70;99.90
24041;DHT22;12246;47.612;18.906;2022-09-09T06:51:23;20.80;99.90
24041;DHT22;12246;47.612;18.906;2022-09-09T06:54:15;20.80;99.90
24041;DHT22;12246;47.612;18.906;2022-09-09T06:57:07;20.80;99.90
24041;DHT22;12246;47.612;18.906;2022-09-09T07:00:20;20.90;99.90
24041;DHT22;12246;47.612;18.906;2022-09-09T07:03:12;21.00;99.90
24041;DHT22;12246;47.612;18.906;2022-09-09T07:06:05;20.90;99.90
24041;DHT22;12246;47.612;18.906;2022-09-09T07:08:59;21.00;99.90
24041;DHT22;12246;47.612;18.906;2022-09-09T07:11:52;21.00;99.90
24041;DHT22;12246;47.612;18.906;2022-09-09T07:14:45;21.20;99.90
24041;DHT22;12246;47.612;18.906;2022-09-09T07:17:37;21.60;99.90
24041;DHT22;12246;47.612;18.906;2022-09-09T07:20:29;22.10;99.90
24041;DHT22;12246;47.612;18.906;2022-09-09T07:23:22;22.10;99.90
24041;DHT22;12246;47.612;18.906;2022-09-09T07:26:16;22.30;99.90
24041;DHT22;12246;47.612;18.906;2022-09-09T07:29:09;22.20;99.90
24041;DHT22;12246;47.612;18.906;2022-09-09T07:32:01;22.40;99.90
24041;DHT22;12246;47.612;18.906;2022-09-09T07:34:54;22.40;99.90
24041;DHT22;12246;47.612;18.906;2022-09-09T07:37:46;22.80;99.90
24041;DHT22;12246;47.612;18.906;2022-09-09T07:40:42;23.20;99.90
24041;DHT22;12246;47.612;18.906;2022-09-09T07:43:35;23.50;99.90
24041;DHT22;12246;47.612;18.906;2022-09-09T07:46:27;24.10;99.90
24041;DHT22;12246;47.612;18.906;2022-09-09T07:49:20;24.50;99.90
24041;DHT22;12246;47.612;18.906;2022-09-09T07:52:20;24.30;99.90
24041;DHT22;12246;47.612;18.906;2022-09-09T07:55:13;24.10;99.90
24041;DHT22;12246;47.612;18.906;2022-09-09T07:58:05;24.30;99.90
24041;DHT22;12246;47.612;18.906;2022-09-09T08:00:57;24.60;99.90
24041;DHT22;12246;47.612;18.906;2022-09-09T08:06:54;25.10;99.90
24041;DHT22;12246;47.612;18.906;2022-09-09T08:09:46;25.20;99.90
24041;DHT22;12246;47.612;18.906;2022-09-09T08:12:38;25.30;99.90
24041;DHT22;12246;47.612;18.906;2022-09-09T08:15:38;25.40;99.90
24041;DHT22;12246;47.612;18.906;2022-09-09T08:18:31;25.70;99.90
24041;DHT22;12246;47.612;18.906;2022-09-09T08:21:25;25.70;99.90
24041;DHT22;12246;47.612;18.906;2022-09-09T08:24:21;25.70;99.90
24041;DHT22;12246;47.612;18.906;2022-09-09T08:27:15;25.70;99.90
24041;DHT22;12246;47.612;18.906;2022-09-09T08:30:07;26.00;99.90
24041;DHT22;12246;47.612;18.906;2022-09-09T08:32:59;26.00;99.90
24041;DHT22;12246;47.612;18.906;2022-09-09T08:35:52;26.20;99.90
24041;DHT22;12246;47.612;18.906;2022-09-09T08:38:48;26.50;99.90
24041;DHT22;12246;47.612;18.906;2022-09-09T08:45:03;26.00;99.90
24041;DHT22;12246;47.612;18.906;2022-09-09T08:51:34;25.60;99.90
24041;DHT22;12246;47.612;18.906;2022-09-09T08:54:30;25.20;99.90
24041;DHT22;12246;47.612;18.906;2022-09-09T08:57:43;25.20;99.90
24041;DHT22;12246;47.612;18.906;2022-09-09T09:07:31;25.70;99.90
24041;DHT22;12246;47.612;18.906;2022-09-09T09:10:47;25.70;99.90
24041;DHT22;12246;47.612;18.906;2022-09-09T09:17:18;25.90;99.90
24041;DHT22;12246;47.612;18.906;2022-09-09T09:20:14;25.90;99.90
24041;DHT22;12246;47.612;18.906;2022-09-09T09:23:15;26.30;99.90
24041;DHT22;12246;47.612;18.906;2022-09-09T09:26:10;26.40;99.90
24041;DHT22;12246;47.612;18.906;2022-09-09T09:29:14;26.80;99.90
24041;DHT22;12246;47.612;18.906;2022-09-09T09:32:13;26.90;99.90
24041;DHT22;12246;47.612;18.906;2022-09-09T09:35:13;27.10;99.90
24041;DHT22;12246;47.612;18.906;2022-09-09T09:38:31;27.30;99.90
24041;DHT22;12246;47.612;18.906;2022-09-09T09:41:43;27.40;99.90
24041;DHT22;12246;47.612;18.906;2022-09-09T09:44:37;27.50;99.90
24041;DHT22;12246;47.612;18.906;2022-09-09T09:47:30;27.40;99.90
24041;DHT22;12246;47.612;18.906;2022-09-09T09:50:22;27.50;99.90
24041;DHT22;12246;47.612;18.906;2022-09-09T09:53:28;27.50;99.90
24041;DHT22;12246;47.612;18.906;2022-09-09T09:56:28;27.50;99.90
24041;DHT22;12246;47.612;18.906;2022-09-09T09:59:42;27.40;99.90
24041;DHT22;12246;47.612;18.906;2022-09-09T10:02:38;27.40;99.90
24041;DHT22;12246;47.612;18.906;2022-09-09T10:05:36;27.60;99.90
24041;DHT22;12246;47.612;18.906;2022-09-09T10:08:28;27.40;99.90
24041;DHT22;12246;47.612;18.906;2022-09-09T10:11:30;27.20;99.90
24041;DHT22;12246;47.612;18.906;2022-09-09T10:14:34;27.20;99.90
24041;DHT22;12246;47.612;18.906;2022-09-09T10:21:20;27.70;99.90
24041;DHT22;12246;47.612;18.906;2022-09-09T10:33:44;27.90;99.90
24041;DHT22;12246;47.612;18.906;2022-09-09T10:36:45;27.90;99.90
24041;DHT22;12246;47.612;18.906;2022-09-09T10:39:39;28.00;99.90
24041;DHT22;12246;47.612;18.906;2022-09-09T10:42:34;28.20;99.90
24041;DHT22;12246;47.612;18.906;2022-09-09T10:46:04;28.00;99.90
24041;DHT22;12246;47.612;18.906;2022-09-09T10:55:38;27.40;99.90
24041;DHT22;12246;47.612;18.906;2022-09-09T10:58:44;27.40;99.90
24041;DHT22;12246;47.612;18.906;2022-09-09T11:01:43;27.20;99.90
24041;DHT22;12246;47.612;18.906;2022-09-09T11:04:44;27.20;99.90
24041;DHT22;12246;47.612;18.906;2022-09-09T11:08:14;27.20;99.90
24041;DHT22;12246;47.612;18.906;2022-09-09T11:11:35;27.30;99.60
24041;DHT22;12246;47.612;18.906;2022-09-09T11:14:39;26.70;99.90
24041;DHT22;12246;47.612;18.906;2022-09-09T11:17:45;26.70;99.90
24041;DHT22;12246;47.612;18.906;2022-09-09T11:20:39;26.70;99.90
24041;DHT22;12246;47.612;18.906;2022-09-09T11:23:43;26.50;99.90
24041;DHT22;12246;47.612;18.906;2022-09-09T11:26:45;26.40;99.90
24041;DHT22;12246;47.612;18.906;2022-09-09T11:38:47;26.10;98.30
24041;DHT22;12246;47.612;18.906;2022-09-09T11:41:43;25.80;99.90
24041;DHT22;12246;47.612;18.906;2022-09-09T11:44:35;25.80;99.90
24041;DHT22;12246;47.612;18.906;2022-09-09T11:47:30;25.90;99.90
24041;DHT22;12246;47.612;18.906;2022-09-09T11:53:20;25.70;99.90
24041;DHT22;12246;47.612;18.906;2022-09-09T11:56:13;25.80;99.90
24041;DHT22;12246;47.612;18.906;2022-09-09T12:02:22;26.10;99.90
24041;DHT22;12246;47.612;18.906;2022-09-09T12:05:16;26.30;99.90
24041;DHT22;12246;47.612;18.906;2022-09-09T12:08:16;26.50;99.90
24041;DHT22;12246;47.612;18.906;2022-09-09T12:11:27;26.50;98.30
24041;DHT22;12246;47.612;18.906;2022-09-09T12:14:22;26.50;97.80
24041;DHT22;12246;47.612;18.906;2022-09-09T12:17:24;26.50;98.60
24041;DHT22;12246;47.612;18.906;2022-09-09T12:20:23;26.60;97.10
24041;DHT22;12246;47.612;18.906;2022-09-09T12:23:18;26.80;96.40
24041;DHT22;12246;47.612;18.906;2022-09-09T12:29:51;26.70;96.10
24041;DHT22;12246;47.612;18.906;2022-09-09T12:32:46;26.40;94.30
24041;DHT22;12246;47.612;18.906;2022-09-09T12:35:40;26.40;96.00
24041;DHT22;12246;47.612;18.906;2022-09-09T12:38:37;26.60;97.00
24041;DHT22;12246;47.612;18.906;2022-09-09T12:41:30;26.50;95.90
24041;DHT22;12246;47.612;18.906;2022-09-09T12:44:23;26.50;96.20
24041;DHT22;12246;47.612;18.906;2022-09-09T12:47:15;26.80;95.70
24041;DHT22;12246;47.612;18.906;2022-09-09T12:50:29;26.90;96.10
24041;DHT22;12246;47.612;18.906;2022-09-09T12:53:23;27.10;94.00
24041;DHT22;12246;47.612;18.906;2022-09-09T12:56:20;27.10;93.70
24041;DHT22;12246;47.612;18.906;2022-09-09T12:59:25;27.00;93.70
24041;DHT22;12246;47.612;18.906;2022-09-09T13:02:26;27.00;95.00
24041;DHT22;12246;47.612;18.906;2022-09-09T13:05:24;27.00;93.70
24041;DHT22;12246;47.612;18.906;2022-09-09T13:08:17;27.00;93.30
24041;DHT22;12246;47.612;18.906;2022-09-09T13:11:25;27.00;93.70
24041;DHT22;12246;47.612;18.906;2022-09-09T13:17:25;26.70;92.20
24041;DHT22;12246;47.612;18.906;2022-09-09T13:20:19;26.60;91.60
24041;DHT22;12246;47.612;18.906;2022-09-09T13:23:12;26.50;92.70
24041;DHT22;12246;47.612;18.906;2022-09-09T13:26:28;26.40;92.40
24041;DHT22;12246;47.612;18.906;2022-09-09T13:29:19;26.10;92.00
24041;DHT22;12246;47.612;18.906;2022-09-09T13:32:17;26.10;92.50
24041;DHT22;12246;47.612;18.906;2022-09-09T13:35:23;26.10;93.20
24041;DHT22;12246;47.612;18.906;2022-09-09T13:38:16;26.10;94.10
24041;DHT22;12246;47.612;18.906;2022-09-09T13:41:10;26.10;94.40
24041;DHT22;12246;47.612;18.906;2022-09-09T13:44:03;26.10;93.10
24041;DHT22;12246;47.612;18.906;2022-09-09T13:47:04;26.10;93.80
24041;DHT22;12246;47.612;18.906;2022-09-09T13:53:15;26.00;95.20
24041;DHT22;12246;47.612;18.906;2022-09-09T13:56:07;26.00;93.90
24041;DHT22;12246;47.612;18.906;2022-09-09T13:59:01;26.10;94.20
24041;DHT22;12246;47.612;18.906;2022-09-09T14:01:53;26.10;94.30
24041;DHT22;12246;47.612;18.906;2022-09-09T14:04:45;26.20;94.40
24041;DHT22;12246;47.612;18.906;2022-09-09T14:07:38;26.30;94.20
24041;DHT22;12246;47.612;18.906;2022-09-09T14:10:32;26.40;93.90
24041;DHT22;12246;47.612;18.906;2022-09-09T14:13:24;26.50;93.40
24041;DHT22;12246;47.612;18.906;2022-09-09T14:16:18;26.50;92.40
24041;DHT22;12246;47.612;18.906;2022-09-09T14:19:11;26.50;93.10
24041;DHT22;12246;47.612;18.906;2022-09-09T14:22:03;26.50;92.50
24041;DHT22;12246;47.612;18.906;2022-09-09T14:24:56;26.40;91.40
24041;DHT22;12246;47.612;18.906;2022-09-09T14:27:49;26.10;90.60
24041;DHT22;12246;47.612;18.906;2022-09-09T14:30:43;25.90;90.40
24041;DHT22;12246;47.612;18.906;2022-09-09T14:33:39;25.80;90.40
24041;DHT22;12246;47.612;18.906;2022-09-09T14:36:32;25.60;90.60
24041;DHT22;12246;47.612;18.906;2022-09-09T14:39:24;25.60;90.60
24041;DHT22;12246;47.612;18.906;2022-09-09T14:42:16;25.40;90.60
24041;DHT22;12246;47.612;18.906;2022-09-09T14:45:09;25.40;92.50
24041;DHT22;12246;47.612;18.906;2022-09-09T14:48:01;25.30;89.60
24041;DHT22;12246;47.612;18.906;2022-09-09T14:50:54;25.30;87.20
24041;DHT22;12246;47.612;18.906;2022-09-09T14:53:47;25.40;89.80
24041;DHT22;12246;47.612;18.906;2022-09-09T14:56:40;25.50;89.30
24041;DHT22;12246;47.612;18.906;2022-09-09T14:59:32;25.40;89.80
24041;DHT22;12246;47.612;18.906;2022-09-09T15:02:24;25.30;90.60
24041;DHT22;12246;47.612;18.906;2022-09-09T15:05:16;25.30;91.20
24041;DHT22;12246;47.612;18.906;2022-09-09T15:08:08;25.50;91.60
24041;DHT22;12246;47.612;18.906;2022-09-09T15:11:02;25.70;91.70
24041;DHT22;12246;47.612;18.906;2022-09-09T15:13:55;25.90;91.60
24041;DHT22;12246;47.612;18.906;2022-09-09T15:16:47;25.90;92.90
24041;DHT22;12246;47.612;18.906;2022-09-09T15:19:40;25.90;92.60
24041;DHT22;12246;47.612;18.906;2022-09-09T15:22:32;25.80;92.70
24041;DHT22;12246;47.612;18.906;2022-09-09T15:25:25;25.80;93.50
24041;DHT22;12246;47.612;18.906;2022-09-09T15:28:18;25.80;94.10
24041;DHT22;12246;47.612;18.906;2022-09-09T15:31:25;25.80;93.80
24041;DHT22;12246;47.612;18.906;2022-09-09T15:34:20;25.80;92.70
24041;DHT22;12246;47.612;18.906;2022-09-09T15:37:12;25.80;93.00
24041;DHT22;12246;47.612;18.906;2022-09-09T15:40:07;25.80;92.40
24041;DHT22;12246;47.612;18.906;2022-09-09T15:42:59;25.70;92.20
24041;DHT22;12246;47.612;18.906;2022-09-09T15:45:56;25.60;92.90
24041;DHT22;12246;47.612;18.906;2022-09-09T15:48:50;25.50;93.20
24041;DHT22;12246;47.612;18.906;2022-09-09T15:51:47;25.40;92.20
24041;DHT22;12246;47.612;18.906;2022-09-09T15:54:42;25.40;91.90
24041;DHT22;12246;47.612;18.906;2022-09-09T15:57:34;25.30;93.10
24041;DHT22;12246;47.612;18.906;2022-09-09T16:00:27;25.20;93.30
24041;DHT22;12246;47.612;18.906;2022-09-09T16:03:20;25.20;92.90
24041;DHT22;12246;47.612;18.906;2022-09-09T16:06:14;25.20;93.10
24041;DHT22;12246;47.612;18.906;2022-09-09T16:09:07;25.10;93.30
24041;DHT22;12246;47.612;18.906;2022-09-09T16:12:00;25.20;92.90
24041;DHT22;12246;47.612;18.906;2022-09-09T16:14:53;25.20;93.70
24041;DHT22;12246;47.612;18.906;2022-09-09T16:17:45;25.10;94.10
24041;DHT22;12246;47.612;18.906;2022-09-09T16:20:38;25.10;97.10
24041;DHT22;12246;47.612;18.906;2022-09-09T16:23:32;25.00;98.80
24041;DHT22;12246;47.612;18.906;2022-09-09T16:26:25;24.90;99.90
24041;DHT22;12246;47.612;18.906;2022-09-09T16:29:18;24.90;99.90
24041;DHT22;12246;47.612;18.906;2022-09-09T16:32:10;24.70;99.90
24041;DHT22;12246;47.612;18.906;2022-09-09T16:35:03;24.50;99.90
24041;DHT22;12246;47.612;18.906;2022-09-09T16:37:55;24.40;99.80
24041;DHT22;12246;47.612;18.906;2022-09-09T16:40:49;24.40;99.60
24041;DHT22;12246;47.612;18.906;2022-09-09T16:43:42;24.30;99.90
24041;DHT22;12246;47.612;18.906;2022-09-09T16:46:36;24.30;99.90
24041;DHT22;12246;47.612;18.906;2022-09-09T16:49:30;24.20;99.90
24041;DHT22;12246;47.612;18.906;2022-09-09T16:52:22;24.10;99.90
24041;DHT22;12246;47.612;18.906;2022-09-09T16:55:14;24.00;99.90
24041;DHT22;12246;47.612;18.906;2022-09-09T16:58:08;24.00;99.90
24041;DHT22;12246;47.612;18.906;2022-09-09T17:01:03;23.90;99.90
24041;DHT22;12246;47.612;18.906;2022-09-09T17:03:57;23.80;99.90
24041;DHT22;12246;47.612;18.906;2022-09-09T17:06:53;23.70;99.90
24041;DHT22;12246;47.612;18.906;2022-09-09T17:09:46;23.60;99.90
24041;DHT22;12246;47.612;18.906;2022-09-09T17:12:38;23.50;99.90
24041;DHT22;12246;47.612;18.906;2022-09-09T17:15:33;23.30;99.90
24041;DHT22;12246;47.612;18.906;2022-09-09T17:18:27;23.20;99.90
24041;DHT22;12246;47.612;18.906;2022-09-09T17:21:22;23.10;99.90
24041;DHT22;12246;47.612;18.906;2022-09-09T17:24:15;22.90;99.90
24041;DHT22;12246;47.612;18.906;2022-09-09T17:27:08;22.90;99.90
24041;DHT22;12246;47.612;18.906;2022-09-09T17:30:00;22.80;99.90
24041;DHT22;12246;47.612;18.906;2022-09-09T17:32:53;22.70;99.90
24041;DHT22;12246;47.612;18.906;2022-09-09T17:35:45;22.70;99.90
24041;DHT22;12246;47.612;18.906;2022-09-09T17:38:38;22.50;99.90
24041;DHT22;12246;47.612;18.906;2022-09-09T17:41:36;22.40;99.90
24041;DHT22;12246;47.612;18.906;2022-09-09T17:44:28;22.30;99.90
24041;DHT22;12246;47.612;18.906;2022-09-09T17:47:22;22.20;99.90
24041;DHT22;12246;47.612;18.906;2022-09-09T17:50:14;22.00;99.90
24041;DHT22;12246;47.612;18.906;2022-09-09T17:53:06;22.00;99.90
24041;DHT22;12246;47.612;18.906;2022-09-09T17:56:06;21.90;99.90
24041;DHT22;12246;47.612;18.906;2022-09-09T17:59:00;21.80;99.90
24041;DHT22;12246;47.612;18.906;2022-09-09T18:01:52;21.80;99.90
24041;DHT22;12246;47.612;18.906;2022-09-09T18:04:44;21.80;99.90
24041;DHT22;12246;47.612;18.906;2022-09-09T18:07:38;21.80;99.90
24041;DHT22;12246;47.612;18.906;2022-09-09T18:10:30;21.80;99.90
24041;DHT22;12246;47.612;18.906;2022-09-09T18:13:22;21.80;99.90
24041;DHT22;12246;47.612;18.906;2022-09-09T18:16:14;21.70;99.90
24041;DHT22;12246;47.612;18.906;2022-09-09T18:19:10;21.60;99.90
24041;DHT22;12246;47.612;18.906;2022-09-09T18:22:05;21.50;99.90
24041;DHT22;12246;47.612;18.906;2022-09-09T18:24:57;21.40;99.90
24041;DHT22;12246;47.612;18.906;2022-09-09T18:27:50;21.40;99.90
24041;DHT22;12246;47.612;18.906;2022-09-09T18:30:44;21.40;99.90
24041;DHT22;12246;47.612;18.906;2022-09-09T18:33:42;21.30;99.90
24041;DHT22;12246;47.612;18.906;2022-09-09T18:36:42;21.30;99.90
24041;DHT22;12246;47.612;18.906;2022-09-09T18:39:35;21.30;99.90
24041;DHT22;12246;47.612;18.906;2022-09-09T18:42:27;21.30;99.90
24041;DHT22;12246;47.612;18.906;2022-09-09T18:45:19;21.30;99.90
24041;DHT22;12246;47.612;18.906;2022-09-09T18:48:12;21.30;99.90
24041;DHT22;12246;47.612;18.906;2022-09-09T18:51:07;21.30;99.90
24041;DHT22;12246;47.612;18.906;2022-09-09T18:54:05;21.30;99.90
24041;DHT22;12246;47.612;18.906;2022-09-09T18:57:00;21.20;99.90
24041;DHT22;12246;47.612;18.906;2022-09-09T18:59:53;21.30;99.90
24041;DHT22;12246;47.612;18.906;2022-09-09T19:02:48;21.20;99.90
24041;DHT22;12246;47.612;18.906;2022-09-09T19:05:44;21.10;99.90
24041;DHT22;12246;47.612;18.906;2022-09-09T19:08:37;21.10;99.90
24041;DHT22;12246;47.612;18.906;2022-09-09T19:11:30;21.10;99.90
24041;DHT22;12246;47.612;18.906;2022-09-09T19:14:22;21.20;99.90
24041;DHT22;12246;47.612;18.906;2022-09-09T19:17:14;21.10;99.90
24041;DHT22;12246;47.612;18.906;2022-09-09T19:20:07;21.00;99.90
24041;DHT22;12246;47.612;18.906;2022-09-09T19:23:00;21.00;99.90
24041;DHT22;12246;47.612;18.906;2022-09-09T19:25:53;20.90;99.90
24041;DHT22;12246;47.612;18.906;2022-09-09T19:28:45;20.90;99.90
24041;DHT22;12246;47.612;18.906;2022-09-09T19:31:38;20.90;99.90
24041;DHT22;12246;47.612;18.906;2022-09-09T19:34:36;20.90;99.90
24041;DHT22;12246;47.612;18.906;2022-09-09T19:37:29;20.80;99.90
24041;DHT22;12246;47.612;18.906;2022-09-09T19:40:22;20.70;99.90
24041;DHT22;12246;47.612;18.906;2022-09-09T19:43:15;20.60;99.90
24041;DHT22;12246;47.612;18.906;2022-09-09T19:46:09;20.60;99.90
24041;DHT22;12246;47.612;18.906;2022-09-09T19:49:04;20.60;99.90
24041;DHT22;12246;47.612;18.906;2022-09-09T19:51:56;20.50;99.90
24041;DHT22;12246;47.612;18.906;2022-09-09T19:54:48;20.00;99.90